Aviation Digital Data Service (ADDS)

Output produced by METARs form (1945 UTC 18 September 2014)
found at http://www.aviationweather.gov/adds/metars/
 
METAR text: EPBY 181930Z 12004KT CAVOK 18/11 Q1018
Conditions at: EPBY (BYDGOSZDZ , PL) observed 1930 UTC 18 September 2014
Temperature: 18.0°C (64°F)
Dewpoint: 11.0°C (52°F) [RH = 64%]
Pressure (altimeter): 30.06 inches Hg (1018.0 mb)
Winds: from the ESE (120 degrees) at 5 MPH (4 knots; 2.1 m/s)
Visibility: 6 or more miles (10+ km)
Ceiling: ceiling and visibility are OK
Clouds: unknown
Weather: no significant weather observed at this time

Forecast for: EPBY (BYDGOSZDZ , PL)
Text: TAF EPBY 181730Z 1818/1903 12004KT CAVOK
Forecast period: 1800 UTC 18 September 2014 to 0300 UTC 19 September 2014
Forecast type: FROM: standard forecast or significant change
Winds: from the ESE (120 degrees) at 5 MPH (4 knots; 2.1 m/s)
Visibility: 6 or more miles (10+ km)
Clouds: not forecast
Weather: NSW  (no significant weather)